Time;durP1;ratioP1;P1;durP2;ratioP2;P2;SDS_P1;SDS_P2;PMS_P1;PMS_P2;Temp;Humidity;BMP_temperature;BMP_pressure;BME280_temperature;BME280_humidity;BME280_pressure;Samples;Min_cycle;Max_cycle;Signal;HPM_P1;HPM_P2
2021/08/30 00:01:01;;;;;;;4.88;1.83;;;15.90;99.90;;;;;;5001156;28;20116;-84
2021/08/30 00:03:27;;;;;;;3.83;1.85;;;15.10;99.90;;;;;;4989944;28;20082;-83
2021/08/30 00:05:53;;;;;;;4.18;2.00;;;16.60;99.90;;;;;;4989306;28;20022;-78
2021/08/30 00:08:19;;;;;;;3.85;1.65;;;15.10;99.90;;;;;;4996517;28;20410;-85
2021/08/30 00:10:45;;;;;;;3.22;1.60;;;;;;;;;;4991505;28;20034;-84
2021/08/30 00:13:10;;;;;;;3.85;1.95;;;15.10;99.90;;;;;;4986049;28;20502;-84
2021/08/30 00:15:36;;;;;;;3.83;1.80;;;15.20;99.90;;;;;;4991308;28;20030;-82
2021/08/30 00:18:02;;;;;;;3.10;1.58;;;15.10;99.90;;;;;;4992002;28;20034;-82
2021/08/30 00:20:27;;;;;;;4.57;1.60;;;16.30;99.90;;;;;;4990314;28;20056;-85
2021/08/30 00:22:53;;;;;;;2.67;1.40;;;15.00;99.90;;;;;;4992077;28;20411;-83
2021/08/30 00:25:18;;;;;;;3.00;1.33;;;15.20;99.90;;;;;;5008083;28;20053;-82
2021/08/30 00:27:44;;;;;;;5.45;1.60;;;15.00;99.90;;;;;;5006280;28;20030;-82
2021/08/30 00:30:10;;;;;;;3.70;1.73;;;15.90;99.90;;;;;;4990246;28;20042;-84
2021/08/30 00:32:36;;;;;;;2.70;1.42;;;14.90;99.90;;;;;;4991743;28;20034;-81
2021/08/30 00:35:02;;;;;;;3.85;1.90;;;14.80;99.90;;;;;;4989256;28;20361;-85
2021/08/30 00:37:27;;;;;;;3.00;1.63;;;14.80;99.90;;;;;;4989482;28;20029;-85
2021/08/30 00:39:53;;;;;;;3.03;1.48;;;14.90;99.90;;;;;;4990108;28;20486;-84
2021/08/30 00:42:19;;;;;;;3.70;1.80;;;;;;;;;;5008129;28;20048;-84
2021/08/30 00:44:45;;;;;;;2.90;1.60;;;14.80;99.90;;;;;;5003974;28;20042;-82
2021/08/30 00:47:12;;;;;;;2.47;1.58;;;14.90;99.90;;;;;;4996626;28;20027;-84
2021/08/30 00:49:38;;;;;;;5.85;1.70;;;17.10;99.90;;;;;;4996887;28;20052;-80
2021/08/30 00:52:04;;;;;;;3.60;2.00;;;14.80;99.90;;;;;;4994578;28;20728;-83
2021/08/30 00:54:30;;;;;;;2.97;1.65;;;14.80;99.90;;;;;;5001515;28;20026;-84
2021/08/30 00:56:57;;;;;;;6.20;1.80;;;14.80;99.90;;;;;;5014147;28;20030;-84
2021/08/30 00:59:23;;;;;;;4.07;1.73;;;16.00;99.90;;;;;;5008546;28;20034;-85
2021/08/30 01:01:50;;;;;;;5.13;1.80;;;15.10;99.90;;;;;;5010791;28;20069;-83
2021/08/30 01:04:17;;;;;;;3.83;1.92;;;14.90;99.90;;;;;;4999129;28;20087;-83
2021/08/30 01:06:44;;;;;;;3.83;1.88;;;16.30;99.90;;;;;;5006554;28;20479;-84
2021/08/30 01:09:47;;;;;;;4.50;1.95;;;14.90;99.90;;;;;;5008021;28;20037;-84
2021/08/30 01:12:55;;;;;;;4.00;1.95;;;14.90;99.90;;;;;;4995040;28;20038;-84
2021/08/30 01:15:29;;;;;;;6.07;1.60;;;14.90;99.90;;;;;;4971926;28;20080;-86
2021/08/30 01:17:57;;;;;;;3.20;1.90;;;14.90;99.90;;;;;;4996685;28;20083;-83
2021/08/30 01:20:41;;;;;;;6.55;2.03;;;14.90;99.90;;;;;;4996189;28;20029;-84
2021/08/30 01:23:08;;;;;;;2.72;1.75;;;14.90;99.90;;;;;;5008799;28;20022;-83
2021/08/30 01:25:36;;;;;;;2.42;1.58;;;15.00;99.90;;;;;;4997793;28;20476;-83
2021/08/30 01:28:03;;;;;;;5.40;2.10;;;15.10;99.90;;;;;;5015529;28;20046;-84
2021/08/30 01:30:31;;;;;;;4.57;2.00;;;15.00;99.90;;;;;;4990841;28;20030;-85
2021/08/30 01:33:01;;;;;;;3.38;1.77;;;16.20;99.90;;;;;;4998221;28;20038;-84
2021/08/30 01:35:29;;;;;;;3.78;1.85;;;15.00;99.90;;;;;;5013380;28;20026;-82
2021/08/30 01:37:58;;;;;;;5.75;1.95;;;15.10;99.90;;;;;;4994571;28;20030;-84
2021/08/30 01:40:27;;;;;;;3.15;2.00;;;15.10;99.90;;;;;;5007165;28;20026;-82
2021/08/30 01:42:55;;;;;;;5.72;2.20;;;15.10;99.90;;;;;;5011200;28;20050;-85
2021/08/30 01:45:27;;;;;;;6.80;1.90;;;15.10;99.90;;;;;;5012068;28;20021;-82
2021/08/30 01:47:56;;;;;;;3.45;2.10;;;15.10;99.90;;;;;;5001621;28;20545;-82
2021/08/30 01:50:23;;;;;;;3.28;2.20;;;15.10;99.90;;;;;;5004913;28;20038;-82
2021/08/30 01:52:53;;;;;;;3.42;2.15;;;15.10;99.90;;;;;;4998859;28;20060;-82
2021/08/30 02:00:42;;;;;;;5.53;2.50;;;15.60;99.90;;;;;;5011218;28;20057;-83
2021/08/30 02:00:52;;;;;;;3.85;2.30;;;15.10;99.90;;;;;;5010910;28;20028;-83
2021/08/30 02:03:17;;;;;;;5.20;2.30;;;15.10;99.90;;;;;;5011202;28;20033;-83
2021/08/30 02:05:44;;;;;;;4.20;2.33;;;15.10;99.90;;;;;;5007583;28;20029;-83
2021/08/30 02:08:10;;;;;;;7.88;3.72;;;15.10;99.90;;;;;;4995349;28;20029;-82
2021/08/30 02:10:36;;;;;;;6.80;2.20;;;15.10;99.90;;;;;;4997887;28;20104;-83
2021/08/30 02:13:02;;;;;;;5.28;2.05;;;16.90;99.90;;;;;;5010459;28;20479;-83
2021/08/30 02:15:27;;;;;;;4.13;2.03;;;15.20;99.90;;;;;;5005090;28;20025;-81
2021/08/30 02:18:00;;;;;;;4.40;2.20;;;15.20;99.90;;;;;;5009313;28;20029;-84
2021/08/30 02:20:29;;;;;;;5.55;2.10;;;15.20;99.90;;;;;;4998072;28;20108;-78
2021/08/30 02:22:58;;;;;;;3.25;2.03;;;15.30;99.90;;;;;;4994194;28;20033;-82
2021/08/30 02:25:25;;;;;;;5.03;2.28;;;16.20;99.90;;;;;;5007681;28;20168;-81
2021/08/30 02:27:53;;;;;;;3.95;2.38;;;15.20;99.90;;;;;;4991136;28;20431;-83
2021/08/30 02:30:25;;;;;;;3.33;2.20;;;15.20;99.90;;;;;;5010215;28;20030;-82
2021/08/30 02:32:58;;;;;;;5.20;2.47;;;15.20;99.90;;;;;;5012053;28;20480;-83
2021/08/30 02:35:28;;;;;;;4.75;2.30;;;15.20;99.90;;;;;;4999717;28;20058;-80
2021/08/30 02:37:54;;;;;;;;;;;15.20;99.90;;;;;;4988141;28;20026;-83
2021/08/30 02:40:23;;;;;;;6.38;3.10;;;15.70;99.90;;;;;;4993655;28;19920;-83
2021/08/30 02:42:50;;;;;;;7.63;2.85;;;15.30;99.90;;;;;;5000856;28;20033;-84
2021/08/30 02:45:16;;;;;;;5.47;2.92;;;15.30;99.90;;;;;;4989389;28;20407;-83
2021/08/30 02:47:43;;;;;;;5.05;2.83;;;15.20;99.90;;;;;;4992289;28;20037;-80
2021/08/30 02:50:10;;;;;;;5.72;2.72;;;15.20;99.90;;;;;;5009285;28;20030;-83
2021/08/30 02:52:37;;;;;;;5.07;3.20;;;15.20;99.90;;;;;;4988535;28;20518;-82
2021/08/30 02:55:05;;;;;;;4.90;2.78;;;15.10;99.90;;;;;;4987326;28;20034;-81
2021/08/30 02:57:33;;;;;;;5.15;2.72;;;15.10;99.90;;;;;;4986184;28;20037;-84
2021/08/30 02:59:59;;;;;;;5.00;2.70;;;15.10;99.90;;;;;;5002829;28;20072;-83
2021/08/30 03:02:26;;;;;;;6.80;3.38;;;15.10;99.90;;;;;;5004649;28;20057;-85
2021/08/30 03:04:54;;;;;;;5.07;2.90;;;16.50;99.90;;;;;;5002536;28;20034;-85
2021/08/30 03:07:20;;;;;;;5.75;2.80;;;15.10;99.90;;;;;;4994774;28;20040;-84
2021/08/30 03:09:46;;;;;;;8.45;3.65;;;15.10;99.90;;;;;;4998388;28;20026;-79
2021/08/30 03:12:15;;;;;;;6.75;3.17;;;15.00;99.90;;;;;;4995824;28;20503;-83
2021/08/30 03:14:43;;;;;;;6.13;3.17;;;15.00;99.90;;;;;;4997243;28;20037;-83
2021/08/30 03:17:13;;;;;;;8.25;3.63;;;15.00;99.90;;;;;;4995086;28;20480;-83
2021/08/30 03:19:42;;;;;;;6.68;3.45;;;15.60;99.90;;;;;;4991883;28;20033;-82
2021/08/30 03:22:10;;;;;;;8.00;3.97;;;15.00;99.90;;;;;;4992798;28;20053;-83
2021/08/30 03:24:39;;;;;;;7.57;3.53;;;15.30;99.90;;;;;;4993014;28;20531;-81
2021/08/30 03:27:06;;;;;;;8.93;3.87;;;15.00;99.90;;;;;;4999187;28;20483;-83
2021/08/30 03:29:33;;;;;;;7.25;3.53;;;15.00;99.90;;;;;;5005851;28;20030;-81
2021/08/30 03:32:00;;;;;;;8.00;3.85;;;15.00;99.90;;;;;;4993374;28;20053;-84
2021/08/30 03:34:26;;;;;;;8.95;3.60;;;15.10;99.90;;;;;;4999273;28;20033;-79
2021/08/30 03:36:51;;;;;;;6.60;3.40;;;16.40;99.90;;;;;;5000220;28;20034;-83
2021/08/30 03:39:18;;;;;;;6.13;2.92;;;15.00;99.90;;;;;;4997310;28;20085;-83
2021/08/30 03:41:45;;;;;;;7.95;3.85;;;15.00;99.90;;;;;;4992718;28;20033;-81
2021/08/30 03:44:11;;;;;;;7.30;3.88;;;16.10;99.90;;;;;;4993462;28;20028;-82
2021/08/30 03:46:40;;;;;;;7.53;3.90;;;15.00;99.90;;;;;;4987807;28;20030;-80
2021/08/30 03:49:07;;;;;;;6.88;3.85;;;16.60;99.90;;;;;;5012364;28;20045;-82
2021/08/30 03:51:35;;;;;;;8.07;4.47;;;15.00;99.90;;;;;;5013459;28;20026;-82
2021/08/30 03:54:03;;;;;;;8.13;4.32;;;15.00;99.90;;;;;;4995733;28;20081;-81
2021/08/30 03:56:29;;;;;;;10.80;4.65;;;16.40;99.90;;;;;;4995529;28;20058;-80
2021/08/30 03:58:55;;;;;;;10.77;4.38;;;14.90;99.90;;;;;;5008215;28;20042;-81
2021/08/30 04:01:25;;;;;;;9.77;4.68;;;15.10;99.90;;;;;;5002592;28;20041;-82
2021/08/30 04:03:53;;;;;;;10.82;4.50;;;15.10;99.90;;;;;;5011090;28;20030;-80
2021/08/30 04:06:20;;;;;;;8.60;4.13;;;15.00;99.90;;;;;;4993779;28;20033;-82
2021/08/30 04:08:46;;;;;;;13.38;5.05;;;17.00;99.90;;;;;;5012005;28;20037;-82
2021/08/30 04:11:13;;;;;;;10.02;4.55;;;15.20;99.90;;;;;;5007271;28;20705;-80
2021/08/30 04:13:40;;;;;;;7.90;3.95;;;15.20;99.90;;;;;;4988847;28;20406;-83
2021/08/30 04:16:06;;;;;;;8.48;4.60;;;15.20;99.90;;;;;;5009528;28;20104;-82
2021/08/30 04:18:32;;;;;;;10.15;4.57;;;15.20;99.90;;;;;;4993417;28;20102;-83
2021/08/30 04:20:58;;;;;;;9.55;4.93;;;15.20;99.90;;;;;;5015332;28;20022;-83
2021/08/30 04:23:24;;;;;;;12.40;4.65;;;15.80;99.90;;;;;;5019906;28;20415;-86
2021/08/30 04:25:49;;;;;;;9.23;4.45;;;15.10;99.90;;;;;;4998820;28;20026;-81
2021/08/30 04:28:15;;;;;;;9.52;4.78;;;15.80;99.90;;;;;;5003320;28;20026;-80
2021/08/30 04:30:40;;;;;;;10.57;4.30;;;15.10;99.90;;;;;;4992057;28;20026;-79
2021/08/30 04:33:11;;;;;;;8.77;3.95;;;15.10;99.90;;;;;;4984989;28;20030;-79
2021/08/30 04:35:37;;;;;;;10.45;4.45;;;15.10;99.90;;;;;;5004960;28;20618;-80
2021/08/30 04:38:05;;;;;;;11.18;4.60;;;15.00;99.90;;;;;;4998172;28;20117;-80
2021/08/30 04:40:31;;;;;;;8.13;4.20;;;;;;;;;;4992494;28;20442;-79
2021/08/30 04:42:57;;;;;;;9.68;4.43;;;15.20;99.90;;;;;;5002847;28;20030;-80
2021/08/30 04:45:22;;;;;;;7.05;3.70;;;15.10;99.90;;;;;;4992971;28;20042;-80
2021/08/30 04:47:48;;;;;;;9.73;4.03;;;;;;;;;;4990034;28;20030;-79
2021/08/30 04:50:14;;;;;;;7.90;4.05;;;15.20;99.90;;;;;;4998130;28;20050;-82
2021/08/30 04:52:40;;;;;;;9.45;4.80;;;15.20;99.90;;;;;;4990599;28;20037;-81
2021/08/30 04:55:06;;;;;;;8.68;3.85;;;16.90;99.90;;;;;;4992973;28;20054;-83
2021/08/30 04:57:31;;;;;;;9.27;4.05;;;15.20;99.90;;;;;;4990442;28;20044;-84
2021/08/30 04:59:57;;;;;;;8.77;4.07;;;15.20;99.90;;;;;;4991455;28;22307;-83
2021/08/30 05:02:23;;;;;;;8.27;3.95;;;17.30;99.90;;;;;;4991036;28;20022;-84
2021/08/30 05:04:48;;;;;;;9.80;4.38;;;15.20;99.90;;;;;;4987316;28;20029;-83
2021/08/30 05:07:14;;;;;;;10.90;3.60;;;15.90;99.90;;;;;;4993578;28;20073;-80
2021/08/30 05:09:39;;;;;;;11.88;5.15;;;16.20;99.90;;;;;;4991784;28;20038;-80
2021/08/30 05:12:05;;;;;;;8.32;4.50;;;15.20;99.90;;;;;;5008981;28;20040;-81
2021/08/30 05:14:30;;;;;;;8.20;4.22;;;15.20;99.90;;;;;;4989645;28;20026;-81
2021/08/30 05:16:56;;;;;;;8.25;4.55;;;15.20;99.90;;;;;;4991430;28;20076;-81
2021/08/30 05:19:22;;;;;;;9.68;4.30;;;15.20;99.90;;;;;;4987819;28;20053;-81
2021/08/30 05:21:47;;;;;;;8.57;3.97;;;15.40;99.90;;;;;;5009353;28;20028;-81
2021/08/30 05:24:13;;;;;;;11.20;3.75;;;15.20;99.90;;;;;;5001855;28;20077;-84
2021/08/30 05:26:38;;;;;;;7.45;3.90;;;15.30;99.90;;;;;;5000691;28;20057;-80
2021/08/30 05:29:04;;;;;;;10.57;5.00;;;16.30;99.90;;;;;;4996945;28;20097;-82
2021/08/30 05:31:30;;;;;;;9.27;3.92;;;16.10;99.90;;;;;;5002251;28;20163;-83
2021/08/30 05:33:59;;;;;;;6.60;3.53;;;15.40;99.90;;;;;;5017933;28;20597;-81
2021/08/30 05:36:26;;;;;;;7.85;3.92;;;;;;;;;;4998458;28;20411;-80
2021/08/30 05:38:53;;;;;;;8.27;3.80;;;15.40;99.90;;;;;;5010604;28;20533;-80
2021/08/30 05:41:19;;;;;;;8.35;4.47;;;;;;;;;;4992956;28;20109;-80
2021/08/30 05:43:45;;;;;;;9.43;4.68;;;15.30;99.90;;;;;;5020498;28;20409;-82
2021/08/30 05:46:15;;;;;;;7.90;3.75;;;16.80;99.90;;;;;;5004356;28;20056;-83
2021/08/30 05:48:45;;;;;;;9.75;4.25;;;16.20;99.90;;;;;;4993375;28;20094;-83
2021/08/30 05:51:11;;;;;;;7.43;3.78;;;;;;;;;;4992926;28;20034;-81
2021/08/30 05:53:36;;;;;;;10.02;4.47;;;15.30;99.90;;;;;;5011333;28;20052;-82
2021/08/30 05:56:02;;;;;;;7.75;3.65;;;15.40;99.90;;;;;;5017443;28;20555;-80
2021/08/30 05:58:27;;;;;;;10.05;4.50;;;15.40;99.90;;;;;;4992903;28;20030;-79
2021/08/30 06:00:53;;;;;;;9.57;4.10;;;15.50;99.90;;;;;;5008167;28;20032;-81
2021/08/30 06:03:19;;;;;;;8.45;4.10;;;15.40;99.90;;;;;;5001491;28;20032;-82
2021/08/30 06:05:44;;;;;;;12.20;5.38;;;15.40;99.90;;;;;;5007588;28;20030;-84
2021/08/30 06:08:10;;;;;;;10.43;4.47;;;16.60;99.90;;;;;;4994089;28;20030;-81
2021/08/30 06:10:35;;;;;;;8.85;3.85;;;16.80;99.90;;;;;;5008022;28;20408;-80
2021/08/30 06:13:01;;;;;;;9.57;4.18;;;16.50;99.90;;;;;;4993540;28;20057;-80
2021/08/30 06:15:27;;;;;;;12.10;4.25;;;15.50;99.90;;;;;;4993098;28;20488;-80
2021/08/30 06:17:52;;;;;;;7.30;3.80;;;15.50;99.90;;;;;;5015286;28;20024;-78
2021/08/30 06:20:18;;;;;;;12.18;4.40;;;15.50;99.90;;;;;;5010244;28;20085;-84
2021/08/30 06:22:44;;;;;;;9.30;4.50;;;15.50;99.90;;;;;;5001065;28;20496;-82
2021/08/30 06:25:09;;;;;;;8.32;3.85;;;15.50;99.90;;;;;;4990035;28;20026;-85
2021/08/30 06:27:35;;;;;;;7.88;4.35;;;15.50;99.90;;;;;;5003207;28;20114;-81
2021/08/30 06:30:01;;;;;;;9.52;3.88;;;16.10;99.90;;;;;;4998765;28;20034;-81
2021/08/30 06:32:27;;;;;;;8.90;4.22;;;15.60;99.90;;;;;;5016917;28;20030;-83
2021/08/30 06:34:52;;;;;;;11.90;4.57;;;17.10;99.90;;;;;;5019784;28;20029;-82
2021/08/30 06:37:18;;;;;;;8.88;4.57;;;16.40;99.90;;;;;;5005317;28;20052;-82
2021/08/30 06:39:43;;;;;;;12.93;4.90;;;15.70;99.90;;;;;;5002134;28;20014;-81
2021/08/30 06:42:09;;;;;;;9.40;4.82;;;17.80;99.90;;;;;;5004458;28;20029;-83
2021/08/30 06:44:34;;;;;;;13.43;4.45;;;15.80;99.90;;;;;;5020404;28;20411;-82
2021/08/30 06:47:00;;;;;;;8.52;4.70;;;16.50;99.90;;;;;;5002238;28;20030;-80
2021/08/30 06:49:26;;;;;;;12.38;4.20;;;16.10;99.90;;;;;;5003789;28;20117;-81
2021/08/30 06:51:51;;;;;;;11.07;4.68;;;16.00;99.90;;;;;;4998691;28;20026;-82
2021/08/30 06:54:17;;;;;;;7.70;4.65;;;15.80;99.90;;;;;;5018830;28;20062;-86
2021/08/30 06:56:43;;;;;;;11.15;5.53;;;16.00;99.90;;;;;;5001636;28;20033;-82
2021/08/30 06:59:08;;;;;;;8.48;4.45;;;16.00;99.90;;;;;;4996273;28;20113;-81
2021/08/30 07:01:34;;;;;;;11.63;5.53;;;17.40;99.90;;;;;;4997551;28;20033;-83
2021/08/30 07:04:00;;;;;;;11.48;5.30;;;16.10;99.90;;;;;;4995684;28;20022;-81
2021/08/30 07:06:27;;;;;;;11.63;5.03;;;16.20;99.90;;;;;;5009319;28;20049;-81
2021/08/30 07:08:52;;;;;;;12.88;5.47;;;;;;;;;;5010017;28;20026;-79
2021/08/30 07:11:18;;;;;;;9.27;5.03;;;;;;;;;;4988390;28;20036;-81
2021/08/30 07:13:44;;;;;;;8.98;4.50;;;;;;;;;;5012343;28;20027;-79
2021/08/30 07:16:10;;;;;;;8.82;4.82;;;16.30;99.90;;;;;;5003543;28;20034;-80
2021/08/30 07:18:36;;;;;;;8.48;4.95;;;16.30;99.90;;;;;;4987672;28;20022;-80
2021/08/30 07:21:01;;;;;;;8.15;4.68;;;17.30;99.90;;;;;;4985711;28;20025;-80
2021/08/30 07:23:30;;;;;;;10.27;4.93;;;;;;;;;;4990772;28;20045;-78
2021/08/30 07:25:56;;;;;;;9.13;4.72;;;16.90;99.90;;;;;;5009076;28;20032;-80
2021/08/30 07:28:22;;;;;;;11.93;6.40;;;17.00;99.90;;;;;;4985421;28;20057;-79
2021/08/30 07:30:48;;;;;;;8.77;5.03;;;17.00;99.90;;;;;;5018941;28;20030;-81
2021/08/30 07:33:14;;;;;;;8.75;5.40;;;17.20;99.90;;;;;;5016340;28;20025;-82
2021/08/30 07:35:40;;;;;;;9.45;5.60;;;17.40;99.90;;;;;;5003467;28;20087;-79
2021/08/30 07:38:05;;;;;;;9.55;5.22;;;17.40;99.90;;;;;;5017473;28;20101;-80
2021/08/30 07:40:31;;;;;;;8.63;4.78;;;17.50;99.90;;;;;;5010838;28;20053;-81
2021/08/30 07:42:56;;;;;;;9.75;5.63;;;17.80;99.90;;;;;;5006631;28;20097;-80
2021/08/30 07:45:22;;;;;;;8.27;5.65;;;18.10;99.90;;;;;;4995721;28;20032;-82
2021/08/30 07:47:48;;;;;;;8.77;5.03;;;;;;;;;;5011528;28;20030;-80
2021/08/30 07:50:14;;;;;;;12.23;6.10;;;;;;;;;;4999027;28;20044;-79
2021/08/30 07:52:40;;;;;;;7.72;5.05;;;18.10;99.90;;;;;;5018455;28;20092;-80
2021/08/30 07:55:07;;;;;;;8.88;5.20;;;20.10;99.90;;;;;;5001675;28;20033;-79
2021/08/30 07:57:33;;;;;;;10.30;5.35;;;18.10;99.90;;;;;;5005002;28;20099;-81
2021/08/30 07:59:59;;;;;;;10.02;5.22;;;;;;;;;;4995278;28;20029;-80
2021/08/30 08:02:25;;;;;;;8.48;5.65;;;18.20;99.90;;;;;;5001587;28;20025;-80
2021/08/30 08:04:51;;;;;;;8.57;5.18;;;18.30;99.90;;;;;;4991496;28;20057;-81
2021/08/30 08:07:16;;;;;;;10.30;5.43;;;18.30;99.90;;;;;;4999658;28;20045;-79
2021/08/30 08:09:42;;;;;;;9.15;5.35;;;;;;;;;;5000521;28;20471;-79
2021/08/30 08:12:08;;;;;;;9.05;5.22;;;18.60;99.90;;;;;;5018718;28;20432;-81
2021/08/30 08:14:34;;;;;;;8.63;4.90;;;18.70;99.90;;;;;;4997783;28;20030;-81
2021/08/30 08:17:00;;;;;;;10.88;5.57;;;19.40;99.90;;;;;;5001604;28;20030;-83
2021/08/30 08:19:26;;;;;;;7.78;4.88;;;18.80;99.90;;;;;;5007787;28;20022;-81
2021/08/30 08:21:55;;;;;;;8.30;4.93;;;;;;;;;;4997770;28;20025;-80
2021/08/30 08:24:23;;;;;;;10.38;5.88;;;;;;;;;;5002305;28;20022;-82
2021/08/30 08:26:49;;;;;;;9.55;5.45;;;19.40;99.90;;;;;;5006062;28;20535;-79
2021/08/30 08:29:14;;;;;;;12.38;6.18;;;21.00;99.90;;;;;;4998358;28;20149;-80
2021/08/30 08:31:40;;;;;;;7.47;5.28;;;;;;;;;;4992300;28;20049;-79
2021/08/30 08:34:06;;;;;;;9.70;6.10;;;19.70;99.90;;;;;;5003937;28;20124;-80
2021/08/30 08:36:32;;;;;;;7.82;5.30;;;19.70;99.90;;;;;;4988746;28;20511;-78
2021/08/30 08:38:58;;;;;;;7.97;5.15;;;20.50;99.90;;;;;;4990611;28;20030;-79
2021/08/30 08:41:24;;;;;;;7.63;5.20;;;19.50;99.90;;;;;;4987389;28;20032;-79
2021/08/30 08:43:53;;;;;;;8.80;6.05;;;19.30;99.90;;;;;;4988133;28;20022;-83
2021/08/30 08:46:20;;;;;;;9.38;5.80;;;19.30;99.90;;;;;;5004200;28;20060;-81
2021/08/30 08:48:46;;;;;;;9.23;6.03;;;19.20;99.90;;;;;;4989803;28;20541;-79
2021/08/30 08:51:13;;;;;;;8.57;5.57;;;19.20;99.90;;;;;;5006649;28;20061;-80
2021/08/30 08:53:39;;;;;;;9.07;5.53;;;19.10;99.90;;;;;;5006936;28;20034;-81
2021/08/30 08:56:05;;;;;;;9.25;6.53;;;19.20;99.90;;;;;;5007032;28;20058;-81
2021/08/30 08:58:31;;;;;;;10.77;6.18;;;;;;;;;;4989179;28;20029;-80
2021/08/30 09:01:12;;;;;;;11.32;5.93;;;18.90;99.90;;;;;;4988927;28;20069;-80
2021/08/30 09:03:45;;;;;;;9.35;6.25;;;18.90;99.90;;;;;;4999555;28;20033;-82
2021/08/30 09:06:11;;;;;;;9.02;6.53;;;19.00;99.90;;;;;;5007858;28;20022;-81
2021/08/30 09:08:42;;;;;;;10.18;6.40;;;19.00;99.90;;;;;;5011071;28;20399;-82
2021/08/30 09:11:33;;;;;;;10.88;6.47;;;18.90;99.90;;;;;;4993689;28;20461;-82
2021/08/30 09:13:59;;;;;;;10.90;7.03;;;;;;;;;;4994209;28;20648;-81
2021/08/30 09:16:25;;;;;;;9.63;6.65;;;19.10;99.90;;;;;;4991678;28;20054;-80
2021/08/30 09:19:03;;;;;;;9.98;6.63;;;19.20;99.90;;;;;;5010529;28;20030;-83
2021/08/30 09:21:29;;;;;;;11.10;7.50;;;19.10;99.90;;;;;;5009251;28;20022;-82
2021/08/30 09:23:54;;;;;;;10.68;7.35;;;19.30;99.90;;;;;;5015108;28;20041;-81
2021/08/30 09:26:21;;;;;;;10.75;7.43;;;19.10;99.90;;;;;;4994597;28;20022;-81
2021/08/30 09:28:52;;;;;;;11.82;8.32;;;19.40;99.90;;;;;;4992182;28;20466;-82
2021/08/30 09:31:18;;;;;;;12.48;7.00;;;19.80;99.90;;;;;;4995078;28;20525;-81
2021/08/30 09:33:49;;;;;;;10.73;6.90;;;19.50;99.90;;;;;;5018025;28;20112;-82
2021/08/30 09:36:16;;;;;;;9.73;6.72;;;19.70;99.90;;;;;;5015179;28;20034;-80
2021/08/30 09:38:43;;;;;;;9.80;6.95;;;19.60;99.90;;;;;;5004150;28;20034;-84
2021/08/30 09:41:11;;;;;;;11.10;7.07;;;19.70;99.90;;;;;;4997337;28;20029;-82
2021/08/30 09:43:37;;;;;;;14.48;7.25;;;;;;;;;;4998491;28;20018;-80
2021/08/30 09:46:04;;;;;;;9.23;6.72;;;19.90;99.90;;;;;;5008420;28;20030;-83
2021/08/30 09:48:31;;;;;;;10.75;6.93;;;19.80;99.90;;;;;;5010571;28;20034;-83
2021/08/30 09:51:05;;;;;;;10.50;7.25;;;20.00;99.90;;;;;;5001250;28;20357;-80
2021/08/30 09:53:32;;;;;;;9.25;6.60;;;21.10;99.90;;;;;;4996860;28;20504;-82
2021/08/30 09:55:59;;;;;;;9.52;6.75;;;20.30;99.90;;;;;;5009202;28;20038;-82
2021/08/30 09:58:29;;;;;;;9.50;6.68;;;20.40;99.90;;;;;;5009843;28;20614;-80
2021/08/30 10:00:57;;;;;;;8.98;6.85;;;20.40;99.90;;;;;;5009876;28;20451;-82
2021/08/30 10:03:28;;;;;;;12.73;6.88;;;20.40;99.90;;;;;;5008047;28;20049;-81
2021/08/30 10:05:55;;;;;;;8.18;6.38;;;20.40;99.90;;;;;;5011443;28;20056;-81
2021/08/30 10:08:22;;;;;;;10.65;7.45;;;20.50;99.90;;;;;;5016249;28;20026;-80
2021/08/30 10:10:49;;;;;;;9.98;6.82;;;20.50;99.90;;;;;;5013586;28;20049;-80
2021/08/30 10:13:16;;;;;;;8.90;6.45;;;20.50;99.90;;;;;;4995660;28;20097;-81
2021/08/30 10:15:43;;;;;;;9.80;6.50;;;20.20;99.90;;;;;;4996048;28;21180;-80
2021/08/30 10:18:11;;;;;;;8.43;6.50;;;20.70;99.90;;;;;;4990397;28;20034;-81
2021/08/30 10:20:40;;;;;;;9.15;6.32;;;20.70;99.90;;;;;;4995230;28;20030;-82
2021/08/30 10:23:08;;;;;;;8.38;6.25;;;20.80;99.90;;;;;;5007872;28;20052;-79
2021/08/30 10:25:38;;;;;;;8.45;5.85;;;20.70;99.90;;;;;;4996713;28;20153;-82
2021/08/30 10:28:04;;;;;;;9.73;6.25;;;;;;;;;;4991831;28;20404;-81
2021/08/30 10:30:38;;;;;;;10.20;6.30;;;20.70;99.70;;;;;;5017341;28;20033;-82
2021/08/30 10:33:10;;;;;;;10.00;6.05;;;;;;;;;;5012489;28;20033;-81
2021/08/30 10:35:37;;;;;;;11.10;6.50;;;;;;;;;;5008900;28;20034;-82
2021/08/30 10:38:07;;;;;;;8.88;6.30;;;20.80;99.60;;;;;;4988646;28;20041;-81
2021/08/30 10:40:36;;;;;;;8.95;6.18;;;20.80;99.70;;;;;;4992027;28;20026;-81
2021/08/30 10:43:06;;;;;;;8.07;5.97;;;20.80;99.60;;;;;;4995141;28;20115;-84
2021/08/30 10:45:34;;;;;;;8.73;6.35;;;20.90;99.90;;;;;;5014079;28;20388;-81
2021/08/30 10:48:03;;;;;;;8.45;5.75;;;20.90;99.50;;;;;;5004955;28;20042;-82
2021/08/30 10:50:30;;;;;;;9.07;6.13;;;20.90;99.30;;;;;;4996352;28;20112;-80
2021/08/30 10:53:08;;;;;;;9.38;6.35;;;21.10;99.30;;;;;;4998147;28;20034;-80
2021/08/30 10:55:40;;;;;;;9.40;5.82;;;20.90;99.00;;;;;;4986631;28;20040;-81
2021/08/30 10:58:13;;;;;;;8.88;6.03;;;21.00;99.00;;;;;;4993276;28;20505;-79
2021/08/30 11:00:39;;;;;;;8.93;5.75;;;20.80;98.70;;;;;;5008961;28;20045;-79
2021/08/30 11:03:05;;;;;;;9.90;6.15;;;20.80;98.40;;;;;;4993159;28;20022;-78
2021/08/30 11:05:31;;;;;;;8.52;5.85;;;20.70;98.60;;;;;;5008738;28;20056;-81
2021/08/30 11:07:57;;;;;;;7.85;5.57;;;20.70;98.80;;;;;;4992295;28;20041;-81
2021/08/30 11:10:25;;;;;;;8.05;6.15;;;20.80;98.50;;;;;;5012717;28;20030;-81
2021/08/30 11:12:51;;;;;;;8.73;6.05;;;20.70;98.80;;;;;;5017977;28;20060;-79
2021/08/30 11:15:17;;;;;;;8.18;5.28;;;20.60;99.00;;;;;;4992272;28;20034;-83
2021/08/30 11:17:43;;;;;;;10.10;6.00;;;20.60;99.10;;;;;;4996248;28;20083;-82
2021/08/30 11:20:10;;;;;;;8.57;5.90;;;20.60;99.00;;;;;;5010747;28;20026;-82
2021/08/30 11:22:36;;;;;;;9.95;6.13;;;20.50;98.70;;;;;;4988966;28;20026;-80
2021/08/30 11:25:03;;;;;;;9.13;5.50;;;20.40;98.50;;;;;;4996507;28;20102;-81
2021/08/30 11:27:32;;;;;;;7.97;5.57;;;20.40;98.80;;;;;;5004203;28;20044;-83
2021/08/30 11:30:00;;;;;;;9.30;6.38;;;20.90;99.00;;;;;;5020945;28;20037;-80
2021/08/30 11:32:28;;;;;;;11.30;6.20;;;20.50;99.10;;;;;;5009745;28;20407;-81
2021/08/30 11:34:54;;;;;;;8.60;5.88;;;20.30;99.40;;;;;;4999945;28;20084;-81
2021/08/30 11:37:26;;;;;;;7.70;5.57;;;20.30;99.60;;;;;;4992913;28;20022;-81
2021/08/30 11:39:53;;;;;;;8.88;5.95;;;20.30;98.80;;;;;;4993108;28;20044;-82
2021/08/30 11:42:25;;;;;;;8.30;6.00;;;20.30;99.10;;;;;;4993151;28;20030;-78
2021/08/30 11:44:53;;;;;;;7.88;5.85;;;20.30;99.10;;;;;;4997579;28;20079;-81
2021/08/30 11:47:20;;;;;;;7.97;5.78;;;21.70;99.60;;;;;;5011617;28;20033;-80
2021/08/30 11:49:53;;;;;;;8.95;5.50;;;20.40;99.50;;;;;;5011468;28;20033;-79
2021/08/30 11:52:22;;;;;;;10.55;5.93;;;20.40;99.40;;;;;;4993908;28;20045;-82
2021/08/30 11:55:02;;;;;;;8.75;5.72;;;20.40;98.90;;;;;;4995989;28;20034;-81
2021/08/30 11:57:40;;;;;;;9.02;6.35;;;20.40;98.90;;;;;;4992326;28;20044;-84
2021/08/30 12:00:08;;;;;;;8.27;5.43;;;20.40;99.10;;;;;;5011929;28;20084;-81
2021/08/30 12:02:35;;;;;;;9.38;5.78;;;20.50;99.20;;;;;;5011382;28;20019;-82
2021/08/30 12:05:03;;;;;;;7.28;5.10;;;20.50;98.70;;;;;;5014656;28;20076;-80
2021/08/30 12:07:32;;;;;;;9.18;5.88;;;20.50;98.90;;;;;;4991695;28;20794;-81
2021/08/30 12:10:00;;;;;;;8.45;5.97;;;20.40;98.70;;;;;;5007954;28;20140;-82
2021/08/30 12:12:34;;;;;;;8.27;5.35;;;20.80;98.90;;;;;;5007423;28;20026;-81
2021/08/30 12:15:07;;;;;;;8.65;5.95;;;20.30;98.80;;;;;;5013541;28;20072;-81
2021/08/30 12:17:34;;;;;;;8.27;5.78;;;20.40;99.00;;;;;;5006129;28;20392;-80
2021/08/30 12:20:09;;;;;;;9.27;6.05;;;20.40;99.40;;;;;;5007936;28;20024;-81
2021/08/30 12:22:38;;;;;;;11.05;6.20;;;20.40;99.40;;;;;;4991789;28;20034;-80
2021/08/30 12:25:15;;;;;;;10.35;6.15;;;20.40;99.60;;;;;;5005274;28;20026;-81
2021/08/30 12:27:42;;;;;;;9.63;5.53;;;20.50;99.10;;;;;;4992688;28;20099;-80
2021/08/30 12:30:11;;;;;;;9.80;6.00;;;20.50;99.00;;;;;;4993090;28;20026;-82
2021/08/30 12:32:46;;;;;;;9.15;6.35;;;20.50;99.20;;;;;;5005836;28;20017;-82
2021/08/30 12:35:16;;;;;;;10.77;5.93;;;20.60;99.30;;;;;;5014134;28;20072;-81
2021/08/30 12:37:42;;;;;;;10.07;6.10;;;20.60;99.00;;;;;;4999177;28;20040;-81
2021/08/30 12:40:08;;;;;;;8.52;6.40;;;20.70;98.70;;;;;;4989131;28;20022;-81
2021/08/30 12:42:34;;;;;;;9.23;5.60;;;20.80;98.50;;;;;;5001443;28;20038;-81
2021/08/30 12:44:59;;;;;;;10.23;6.05;;;20.90;98.50;;;;;;5005478;28;20060;-83
2021/08/30 12:47:25;;;;;;;8.02;5.95;;;21.00;97.80;;;;;;5001406;28;20023;-82
2021/08/30 12:49:51;;;;;;;7.97;6.13;;;21.00;98.00;;;;;;5018813;28;20029;-80
2021/08/30 12:52:16;;;;;;;9.73;6.28;;;21.10;97.90;;;;;;5003763;28;20057;-80
2021/08/30 12:54:42;;;;;;;10.65;6.25;;;21.20;97.50;;;;;;5009528;28;20109;-81
2021/08/30 12:57:08;;;;;;;7.68;5.72;;;;;;;;;;4998477;28;20056;-80